Time;durP1;ratioP1;P1;durP2;ratioP2;P2;SDS_P1;SDS_P2;PMS_P1;PMS_P2;Temp;Humidity;BMP_temperature;BMP_pressure;BME280_temperature;BME280_humidity;BME280_pressure;Samples;Min_cycle;Max_cycle;Signal;HPM_P1;HPM_P2
2023/07/02 00:00:59;;;;;;;4.53;3.08;;;16.60;99.90;;;;;;5025439;28;20052;-73
2023/07/02 05:03:45;;;;;;;6.80;3.42;;;16.00;99.90;;;;;;4981595;28;20323;-73
2023/07/02 05:06:11;;;;;;;6.28;3.85;;;16.00;99.90;;;;;;4975509;28;20030;-73
2023/07/02 05:08:37;;;;;;;6.93;3.47;;;16.10;99.90;;;;;;4979039;28;20098;-73
2023/07/02 05:11:02;;;;;;;7.90;3.63;;;16.20;99.90;;;;;;4979314;28;20031;-74
2023/07/02 05:13:28;;;;;;;6.88;3.13;;;16.40;99.90;;;;;;4983798;28;20038;-74
2023/07/02 05:15:54;;;;;;;8.10;2.95;;;16.60;99.90;;;;;;4984410;28;20026;-73
2023/07/02 05:18:19;;;;;;;5.47;3.13;;;16.70;99.90;;;;;;4984246;28;20074;-74
2023/07/02 05:20:45;;;;;;;6.47;3.17;;;16.90;99.90;;;;;;4979418;28;20030;-73
2023/07/02 05:23:11;;;;;;;6.97;3.15;;;17.00;99.90;;;;;;4965171;29;20035;-73
2023/07/02 05:25:36;;;;;;;6.30;2.88;;;17.10;99.90;;;;;;4965071;29;20028;-75
2023/07/02 05:28:02;;;;;;;6.57;3.03;;;17.10;99.90;;;;;;4947813;29;20042;-75
2023/07/02 05:30:30;;;;;;;7.20;3.22;;;17.10;99.90;;;;;;4964842;29;20044;-74
2023/07/02 05:32:56;;;;;;;;;;;17.10;99.90;;;;;;4965502;29;20066;-73
2023/07/02 05:35:22;;;;;;;7.30;3.10;;;17.20;99.90;;;;;;4968704;28;20226;-74
2023/07/02 05:37:47;;;;;;;8.48;3.35;;;17.20;99.90;;;;;;4984326;28;20027;-74
2023/07/02 05:40:16;;;;;;;5.70;3.53;;;17.30;99.90;;;;;;4984572;28;20037;-73
2023/07/02 05:42:42;;;;;;;;;;;17.30;99.90;;;;;;4983884;28;20058;-73
2023/07/02 05:45:08;;;;;;;7.20;3.63;;;17.20;99.90;;;;;;4984155;28;19906;-74
2023/07/02 05:47:34;;;;;;;7.78;3.40;;;17.10;99.90;;;;;;4983631;28;20030;-74
2023/07/02 05:50:00;;;;;;;8.50;3.55;;;17.00;99.90;;;;;;4984096;28;20209;-74
2023/07/02 05:52:25;;;;;;;8.60;3.58;;;16.90;99.90;;;;;;4965962;28;20022;-74
2023/07/02 05:54:51;;;;;;;10.88;4.00;;;16.80;99.90;;;;;;4966751;28;20335;-74
2023/07/02 05:57:17;;;;;;;8.38;3.88;;;16.80;99.90;;;;;;4983599;28;20149;-74
2023/07/02 05:59:42;;;;;;;7.45;3.58;;;16.90;99.90;;;;;;4966323;28;20023;-74
2023/07/02 06:02:08;;;;;;;7.82;3.78;;;17.00;99.90;;;;;;4991623;28;20050;-74
2023/07/02 06:04:34;;;;;;;7.40;3.65;;;17.20;99.90;;;;;;5002471;28;20041;-76
2023/07/02 06:06:59;;;;;;;8.60;3.60;;;17.30;99.90;;;;;;5002964;28;20149;-75
2023/07/02 06:09:25;;;;;;;8.07;3.50;;;17.50;99.90;;;;;;5002618;28;20019;-76
2023/07/02 06:11:54;;;;;;;10.13;4.22;;;17.40;99.90;;;;;;4985833;28;20038;-73
2023/07/02 06:14:19;;;;;;;;;;;17.50;99.90;;;;;;5003782;28;20215;-73
2023/07/02 06:16:45;;;;;;;10.20;4.15;;;17.60;99.90;;;;;;4985307;28;19913;-73
2023/07/02 06:19:13;;;;;;;8.75;4.00;;;17.70;99.90;;;;;;5003310;28;20049;-75
2023/07/02 06:21:39;;;;;;;11.75;4.32;;;17.70;99.90;;;;;;5002883;28;20065;-75
2023/07/02 06:24:05;;;;;;;11.10;4.88;;;17.90;99.90;;;;;;5003296;28;20193;-74
2023/07/02 06:26:32;;;;;;;13.45;5.60;;;18.00;99.90;;;;;;5002858;28;20029;-72
2023/07/02 06:28:58;;;;;;;10.27;5.22;;;18.10;99.90;;;;;;5003216;28;20043;-74
2023/07/02 06:31:24;;;;;;;10.52;5.60;;;18.10;99.90;;;;;;5002975;28;20308;-75
2023/07/02 06:33:50;;;;;;;11.10;5.80;;;18.30;99.90;;;;;;5002956;28;20307;-76
2023/07/02 06:36:19;;;;;;;11.70;6.40;;;18.40;99.90;;;;;;4985821;28;20073;-74
2023/07/02 06:38:45;;;;;;;13.35;6.65;;;18.50;99.90;;;;;;5002658;28;20308;-73
2023/07/02 06:41:11;;;;;;;10.60;5.55;;;18.50;99.90;;;;;;5003215;28;20081;-73
2023/07/02 06:43:36;;;;;;;13.80;6.32;;;18.70;99.90;;;;;;5002758;28;20050;-73
2023/07/02 06:46:02;;;;;;;15.65;7.05;;;18.90;99.90;;;;;;4985198;28;20037;-73
2023/07/02 06:48:30;;;;;;;10.30;6.50;;;19.00;99.90;;;;;;5002765;28;20094;-74
2023/07/02 06:50:56;;;;;;;;;;;19.10;99.70;;;;;;5003490;28;20026;-73
2023/07/02 06:53:22;;;;;;;11.25;6.43;;;19.30;99.00;;;;;;4985775;28;20199;-73
2023/07/02 06:55:47;;;;;;;11.63;6.68;;;19.40;98.40;;;;;;5002393;28;20038;-75
2023/07/02 06:58:13;;;;;;;14.70;6.63;;;19.50;98.00;;;;;;5002629;28;20030;-73
2023/07/02 07:00:39;;;;;;;13.52;6.70;;;19.40;97.70;;;;;;5002390;28;20304;-74
2023/07/02 07:03:05;;;;;;;15.70;7.22;;;19.60;97.40;;;;;;5002476;28;20097;-72
2023/07/02 07:05:31;;;;;;;13.60;7.30;;;19.60;96.70;;;;;;5004834;28;20073;-74
2023/07/02 07:07:58;;;;;;;12.55;6.70;;;19.60;96.60;;;;;;4989552;28;20061;-74
2023/07/02 07:10:24;;;;;;;12.98;7.20;;;19.70;96.70;;;;;;5006373;28;20030;-75
2023/07/02 07:12:50;;;;;;;12.98;7.00;;;19.70;96.10;;;;;;5005793;28;20248;-76
2023/07/02 07:15:15;;;;;;;14.57;7.10;;;19.80;96.60;;;;;;5006629;28;20060;-76
2023/07/02 07:17:41;;;;;;;12.43;7.22;;;19.90;96.10;;;;;;5005565;28;20201;-73
2023/07/02 07:20:07;;;;;;;13.38;6.90;;;20.00;95.70;;;;;;5006250;28;20030;-75
2023/07/02 07:22:34;;;;;;;14.50;7.68;;;20.10;95.80;;;;;;5005736;28;20043;-73
2023/07/02 07:25:00;;;;;;;13.70;7.35;;;20.20;95.20;;;;;;5005865;28;20034;-72
2023/07/02 07:27:25;;;;;;;15.77;8.10;;;20.00;95.00;;;;;;5005931;28;20324;-72
2023/07/02 07:29:51;;;;;;;14.43;7.43;;;19.80;94.90;;;;;;5005400;28;20200;-74
2023/07/02 07:32:20;;;;;;;15.00;8.13;;;19.80;95.40;;;;;;5005874;28;20053;-76
2023/07/02 07:34:46;;;;;;;15.75;7.47;;;19.90;95.00;;;;;;5005542;28;20296;-73
2023/07/02 07:37:11;;;;;;;16.73;8.65;;;20.10;95.50;;;;;;4988108;28;20037;-72
2023/07/02 07:39:37;;;;;;;15.57;8.93;;;20.20;94.40;;;;;;5005102;28;20018;-72
2023/07/02 07:42:03;;;;;;;18.42;9.13;;;20.20;93.40;;;;;;5005900;28;20043;-73
2023/07/02 07:44:29;;;;;;;18.05;9.45;;;20.20;92.20;;;;;;5005045;28;20041;-76
2023/07/02 07:46:57;;;;;;;20.65;10.35;;;20.00;92.00;;;;;;5005553;28;20090;-74
2023/07/02 07:49:23;;;;;;;18.23;9.30;;;20.20;92.00;;;;;;5005646;28;20030;-74
2023/07/02 07:51:49;;;;;;;18.33;9.77;;;20.30;91.60;;;;;;5005134;28;20045;-74
2023/07/02 07:54:14;;;;;;;15.73;9.43;;;20.70;90.50;;;;;;5005422;28;20030;-72
2023/07/02 07:56:43;;;;;;;19.23;9.63;;;20.70;90.50;;;;;;5004443;28;20098;-72
2023/07/02 07:59:11;;;;;;;18.85;9.60;;;20.70;90.60;;;;;;5005545;28;20269;-73
2023/07/02 08:01:36;;;;;;;18.57;10.50;;;20.70;88.70;;;;;;5004856;28;20085;-74
2023/07/02 08:04:02;;;;;;;19.25;9.80;;;20.70;90.00;;;;;;5005254;28;20328;-72
2023/07/02 08:06:28;;;;;;;21.50;10.82;;;21.00;89.20;;;;;;5004992;28;20035;-74
2023/07/02 08:08:53;;;;;;;19.20;10.25;;;21.00;87.50;;;;;;5004444;28;20082;-71
2023/07/02 08:11:19;;;;;;;19.55;10.68;;;20.70;88.10;;;;;;5005493;28;20200;-72
2023/07/02 08:13:45;;;;;;;20.15;10.65;;;20.70;88.80;;;;;;5004545;28;20034;-71
2023/07/02 08:16:10;;;;;;;21.00;10.23;;;20.60;88.80;;;;;;5004081;28;20042;-70
2023/07/02 08:18:36;;;;;;;19.77;10.52;;;20.50;88.10;;;;;;5004628;28;20304;-72
2023/07/02 08:21:02;;;;;;;21.67;11.02;;;20.60;88.40;;;;;;5004957;28;20057;-72
2023/07/02 08:23:28;;;;;;;20.27;11.32;;;20.60;87.60;;;;;;5005008;28;20064;-72
2023/07/02 08:25:53;;;;;;;18.00;10.25;;;20.70;87.00;;;;;;5004604;28;20034;-73
2023/07/02 08:28:19;;;;;;;19.55;11.07;;;20.70;87.20;;;;;;5004561;28;20042;-71
2023/07/02 08:30:45;;;;;;;20.63;10.48;;;20.80;87.90;;;;;;5004375;28;20045;-73
2023/07/02 08:33:11;;;;;;;19.48;10.40;;;20.80;86.00;;;;;;5003389;28;20274;-73
2023/07/02 08:35:36;;;;;;;20.20;10.25;;;20.70;86.20;;;;;;5004395;28;20030;-72
2023/07/02 08:38:02;;;;;;;24.60;11.38;;;20.70;86.60;;;;;;5004866;28;20069;-71
2023/07/02 08:40:28;;;;;;;19.00;10.27;;;20.80;86.90;;;;;;5003553;28;20177;-73
2023/07/02 08:42:55;;;;;;;16.70;9.75;;;21.00;86.00;;;;;;5004247;28;20022;-74
2023/07/02 08:45:24;;;;;;;18.95;10.20;;;21.10;85.00;;;;;;5004748;28;20026;-74
2023/07/02 08:47:50;;;;;;;18.48;9.50;;;21.20;85.40;;;;;;5004156;28;20026;-72
2023/07/02 08:50:16;;;;;;;14.77;9.30;;;21.40;83.20;;;;;;5003395;28;20093;-72
2023/07/02 08:52:45;;;;;;;16.98;9.60;;;21.20;84.40;;;;;;5004368;28;20296;-73
2023/07/02 08:55:11;;;;;;;15.98;9.23;;;21.30;84.10;;;;;;5004800;28;20316;-75
2023/07/02 08:57:37;;;;;;;18.98;9.43;;;21.20;82.60;;;;;;5004235;28;20033;-75
2023/07/02 09:00:09;;;;;;;16.83;8.88;;;21.20;81.70;;;;;;4987429;28;20030;-73
2023/07/02 09:02:35;;;;;;;18.33;9.60;;;21.30;81.50;;;;;;5003159;28;20054;-74
2023/07/02 09:05:01;;;;;;;15.40;8.70;;;21.40;82.20;;;;;;5003859;28;20033;-73
2023/07/02 09:07:27;;;;;;;15.68;8.10;;;21.70;82.10;;;;;;5003835;28;20033;-72
2023/07/02 09:09:54;;;;;;;14.43;7.90;;;21.80;80.00;;;;;;4970483;28;20053;-72
2023/07/02 09:12:27;;;;;;;14.52;8.20;;;21.80;78.50;;;;;;4986837;28;20320;-71
2023/07/02 09:14:58;;;;;;;16.52;8.60;;;21.70;77.80;;;;;;5004283;28;20275;-71
2023/07/02 09:17:29;;;;;;;15.25;9.02;;;21.80;77.90;;;;;;5004225;28;20034;-72
2023/07/02 09:19:55;;;;;;;14.45;8.10;;;22.00;77.70;;;;;;5003547;28;20045;-70
2023/07/02 09:22:21;;;;;;;15.95;8.35;;;22.10;76.30;;;;;;5004113;28;20022;-71
2023/07/02 09:24:55;;;;;;;17.17;8.93;;;22.30;75.90;;;;;;5003182;28;20252;-69
2023/07/02 09:27:21;;;;;;;15.52;7.93;;;22.30;76.50;;;;;;4999366;28;20054;-71
2023/07/02 09:29:52;;;;;;;17.33;8.57;;;22.30;76.70;;;;;;5002701;28;20034;-72
2023/07/02 09:32:28;;;;;;;17.95;8.73;;;22.40;76.90;;;;;;5003417;28;20035;-71
2023/07/02 09:34:58;;;;;;;17.67;9.23;;;22.20;76.40;;;;;;5002846;28;20363;-71
2023/07/02 09:37:24;;;;;;;17.33;9.20;;;22.20;77.20;;;;;;5003754;28;20097;-73
2023/07/02 09:39:52;;;;;;;17.25;8.80;;;22.20;77.10;;;;;;5002730;28;20216;-72
2023/07/02 09:42:19;;;;;;;15.13;8.55;;;22.40;76.90;;;;;;5003429;28;20034;-73
2023/07/02 09:44:46;;;;;;;14.02;8.20;;;22.60;75.70;;;;;;4985581;28;20030;-71
2023/07/02 09:47:14;;;;;;;15.45;8.63;;;22.70;75.40;;;;;;5003066;28;20061;-71
2023/07/02 09:49:47;;;;;;;;;;;22.90;76.10;;;;;;5003504;28;20038;-70
2023/07/02 09:52:14;;;;;;;15.40;8.60;;;23.00;74.50;;;;;;5003130;28;20095;-71
2023/07/02 09:54:41;;;;;;;16.10;8.90;;;23.20;73.70;;;;;;5003071;28;20039;-70
2023/07/02 09:57:07;;;;;;;15.68;8.80;;;23.40;73.30;;;;;;5003458;28;20289;-70
2023/07/02 09:59:33;;;;;;;16.02;8.73;;;23.10;72.70;;;;;;5003170;28;20035;-69
2023/07/02 10:01:59;;;;;;;16.17;9.00;;;23.10;73.90;;;;;;5002337;28;20057;-69
2023/07/02 10:04:25;;;;;;;14.55;8.68;;;23.20;74.70;;;;;;5002946;28;20376;-69
2023/07/02 10:06:56;;;;;;;13.35;8.52;;;23.30;74.00;;;;;;5001635;28;20041;-72
2023/07/02 10:09:39;;;;;;;15.68;8.88;;;23.30;73.20;;;;;;5003095;28;20030;-72
2023/07/02 10:12:23;;;;;;;18.65;10.52;;;23.60;73.70;;;;;;5003517;28;20052;-73
2023/07/02 10:14:51;;;;;;;16.98;10.13;;;23.80;72.80;;;;;;4985612;28;20034;-72
2023/07/02 10:17:30;;;;;;;18.30;9.65;;;23.90;73.10;;;;;;4981880;28;20062;-74
2023/07/02 10:19:59;;;;;;;16.25;8.80;;;24.10;73.20;;;;;;4982227;28;20034;-73
2023/07/02 10:22:24;;;;;;;;;;;24.20;73.10;;;;;;4984284;28;20053;-70
2023/07/02 10:25:00;;;;;;;15.85;9.10;;;24.20;71.80;;;;;;4983037;28;20192;-70
2023/07/02 10:27:42;;;;;;;15.20;8.85;;;24.20;71.20;;;;;;4983445;28;20086;-71
2023/07/02 10:30:09;;;;;;;16.38;10.18;;;24.40;72.20;;;;;;5001248;28;20213;-74
2023/07/02 10:32:37;;;;;;;18.42;10.35;;;24.20;71.50;;;;;;5002847;28;20026;-71
2023/07/02 10:35:19;;;;;;;17.00;10.13;;;24.00;72.50;;;;;;4992200;28;20216;-71
2023/07/02 10:37:45;;;;;;;16.48;9.68;;;23.60;73.40;;;;;;4983046;28;20247;-70
2023/07/02 10:40:12;;;;;;;17.25;9.50;;;23.20;74.90;;;;;;4985756;28;20027;-73
2023/07/02 10:42:48;;;;;;;15.73;10.07;;;23.10;74.80;;;;;;4987428;28;20039;-73
2023/07/02 10:45:14;;;;;;;17.00;9.82;;;23.40;73.90;;;;;;4986979;28;20103;-73
2023/07/02 10:47:41;;;;;;;16.63;9.98;;;23.50;73.20;;;;;;4997870;28;20097;-70
2023/07/02 10:50:17;;;;;;;18.08;10.35;;;23.50;73.00;;;;;;5006442;28;20085;-71
2023/07/02 10:52:43;;;;;;;16.40;9.88;;;23.50;73.00;;;;;;5005816;28;20228;-68
2023/07/02 10:55:09;;;;;;;18.00;10.70;;;23.40;73.50;;;;;;5006168;28;20105;-72
2023/07/02 10:57:35;;;;;;;16.90;9.93;;;23.50;73.70;;;;;;5006124;28;20038;-70
2023/07/02 11:00:07;;;;;;;17.10;10.45;;;23.60;73.40;;;;;;4987901;28;20041;-71
2023/07/02 11:02:37;;;;;;;21.05;10.43;;;23.80;73.10;;;;;;5006049;28;20054;-72
2023/07/02 11:05:06;;;;;;;18.25;10.13;;;24.20;73.20;;;;;;5005439;28;20236;-73
2023/07/02 11:07:33;;;;;;;18.33;10.40;;;24.40;70.70;;;;;;5006273;28;20016;-72
2023/07/02 11:09:58;;;;;;;15.18;9.55;;;24.50;69.40;;;;;;4988600;28;20197;-71
2023/07/02 11:12:29;;;;;;;15.48;9.75;;;24.70;67.70;;;;;;5005957;28;20081;-73
2023/07/02 11:14:54;;;;;;;17.08;10.73;;;24.60;67.30;;;;;;5003866;28;20234;-72
2023/07/02 11:17:26;;;;;;;17.25;10.43;;;24.60;68.00;;;;;;5004845;28;20039;-73
2023/07/02 11:19:53;;;;;;;17.27;10.23;;;24.90;67.60;;;;;;5005359;28;20252;-73
2023/07/02 11:22:19;;;;;;;18.30;10.60;;;25.20;67.20;;;;;;4988691;28;20056;-74
2023/07/02 11:24:45;;;;;;;15.77;9.80;;;25.30;66.10;;;;;;4987783;28;20034;-71
2023/07/02 11:27:22;;;;;;;15.80;9.18;;;25.10;65.60;;;;;;5005900;28;20053;-70
2023/07/02 11:29:47;;;;;;;16.35;10.18;;;25.30;65.70;;;;;;5004328;28;20308;-73
2023/07/02 11:32:14;;;;;;;15.43;9.52;;;25.50;65.80;;;;;;4989965;28;20042;-72
2023/07/02 11:34:40;;;;;;;15.75;9.50;;;26.00;66.60;;;;;;4994007;28;20042;-72
2023/07/02 11:37:06;;;;;;;16.42;10.00;;;26.30;64.80;;;;;;5004988;28;20211;-72
2023/07/02 11:39:32;;;;;;;15.32;9.82;;;26.90;64.10;;;;;;5006058;28;20089;-73
2023/07/02 11:41:58;;;;;;;18.13;10.48;;;26.90;62.60;;;;;;5005161;28;20032;-72
2023/07/02 11:44:24;;;;;;;15.20;8.98;;;26.50;63.50;;;;;;5005707;28;20038;-72
2023/07/02 11:46:50;;;;;;;15.85;9.02;;;26.50;62.30;;;;;;5004779;28;20049;-72
2023/07/02 11:49:15;;;;;;;15.35;9.77;;;26.30;62.40;;;;;;5005727;28;20018;-73
2023/07/02 11:51:48;;;;;;;15.63;9.85;;;26.40;62.90;;;;;;5005550;28;20034;-73
2023/07/02 11:54:14;;;;;;;14.13;10.10;;;27.20;61.40;;;;;;5005497;28;20085;-73
2023/07/02 11:56:42;;;;;;;15.35;9.63;;;27.70;59.70;;;;;;4987904;28;20018;-74
2023/07/02 11:59:08;;;;;;;16.27;9.55;;;28.00;59.50;;;;;;5004745;28;20339;-73
2023/07/02 12:01:34;;;;;;;15.48;10.10;;;28.90;59.60;;;;;;5004035;28;20030;-74
2023/07/02 12:04:00;;;;;;;14.15;9.65;;;29.70;57.70;;;;;;5004672;28;20321;-75
2023/07/02 12:06:25;;;;;;;13.00;9.25;;;29.20;57.40;;;;;;5005018;28;20042;-73
2023/07/02 12:08:51;;;;;;;13.65;9.52;;;30.40;55.60;;;;;;5004980;28;20098;-72
2023/07/02 12:11:17;;;;;;;14.70;9.93;;;30.30;55.20;;;;;;5005252;28;20049;-74
2023/07/02 12:13:43;;;;;;;15.38;9.75;;;30.70;55.10;;;;;;5005375;28;20038;-73
2023/07/02 12:16:10;;;;;;;14.07;10.05;;;31.00;55.10;;;;;;5005536;28;20042;-74
2023/07/02 12:18:35;;;;;;;13.63;9.63;;;32.60;52.90;;;;;;5005091;28;20046;-74
2023/07/02 12:21:01;;;;;;;13.65;9.20;;;33.90;50.80;;;;;;5004317;28;20216;-76
2023/07/02 12:23:27;;;;;;;12.25;8.95;;;34.10;51.30;;;;;;5004736;28;20276;-73
2023/07/02 12:25:52;;;;;;;14.52;10.55;;;34.00;49.60;;;;;;5004425;28;20056;-73
2023/07/02 12:28:18;;;;;;;16.75;9.85;;;33.90;49.10;;;;;;5004529;28;20033;-72
2023/07/02 12:30:44;;;;;;;15.13;10.02;;;33.50;50.00;;;;;;5003222;28;20031;-72
2023/07/02 12:33:09;;;;;;;14.68;10.10;;;34.90;49.20;;;;;;5003359;28;20049;-71
2023/07/02 12:35:35;;;;;;;14.77;9.82;;;35.50;47.50;;;;;;5003703;28;20049;-76
2023/07/02 12:38:03;;;;;;;13.85;9.98;;;33.90;48.10;;;;;;5001683;28;20089;-73
2023/07/02 12:40:29;;;;;;;13.45;9.65;;;34.00;48.80;;;;;;5002185;28;20324;-72
2023/07/02 12:42:56;;;;;;;13.82;9.93;;;34.60;49.00;;;;;;5003131;28;20026;-73
2023/07/02 12:45:22;;;;;;;13.83;10.00;;;35.90;48.00;;;;;;5003503;28;20034;-75
2023/07/02 12:47:48;;;;;;;11.85;9.27;;;36.50;46.90;;;;;;5003667;28;20417;-74
2023/07/02 12:50:13;;;;;;;12.85;9.93;;;36.00;46.20;;;;;;5003757;28;20034;-72
2023/07/02 12:52:39;;;;;;;13.90;10.18;;;35.60;46.60;;;;;;5003922;28;20030;-72
2023/07/02 12:55:05;;;;;;;11.07;8.98;;;35.10;46.30;;;;;;4999082;28;20019;-74
2023/07/02 12:57:31;;;;;;;14.30;9.23;;;35.00;46.90;;;;;;5003311;28;20026;-73
2023/07/02 12:59:57;;;;;;;13.75;10.32;;;35.80;46.30;;;;;;5003138;28;20164;-72
2023/07/02 13:02:23;;;;;;;13.43;10.15;;;36.20;46.10;;;;;;4968868;28;20100;-72
2023/07/02 13:04:49;;;;;;;16.30;10.07;;;37.20;45.00;;;;;;5002979;28;20231;-72
2023/07/02 13:07:16;;;;;;;11.52;9.32;;;36.20;45.20;;;;;;4986242;28;20065;-73
2023/07/02 13:09:42;;;;;;;13.68;9.50;;;35.50;45.00;;;;;;5003513;28;20253;-72
2023/07/02 13:12:09;;;;;;;12.93;9.68;;;36.20;46.30;;;;;;5001704;28;20034;-74
2023/07/02 13:14:35;;;;;;;14.43;10.27;;;37.10;44.70;;;;;;5000088;28;20026;-72
2023/07/02 13:17:03;;;;;;;15.00;9.90;;;36.40;44.40;;;;;;5002863;28;20061;-72
2023/07/02 13:19:28;;;;;;;13.25;9.27;;;35.20;45.00;;;;;;5002873;28;20492;-72
2023/07/02 13:21:54;;;;;;;13.75;9.88;;;35.00;45.50;;;;;;5002561;28;20038;-71
2023/07/02 13:24:20;;;;;;;14.18;9.70;;;34.70;45.40;;;;;;5002855;28;20316;-72
2023/07/02 13:26:45;;;;;;;13.52;9.60;;;35.40;45.40;;;;;;5003114;28;20026;-73
2023/07/02 13:29:11;;;;;;;13.60;9.93;;;36.90;44.00;;;;;;5002314;28;20026;-70
2023/07/02 13:31:37;;;;;;;12.80;9.65;;;36.80;44.30;;;;;;5002916;28;20036;-72
2023/07/02 13:34:03;;;;;;;14.40;9.65;;;37.40;43.70;;;;;;5002396;28;20153;-71
2023/07/02 13:36:28;;;;;;;12.98;9.48;;;37.50;43.90;;;;;;5003157;28;20038;-73
2023/07/02 13:38:54;;;;;;;14.13;9.43;;;36.30;43.90;;;;;;5002367;28;20212;-73
2023/07/02 13:41:20;;;;;;;12.35;9.20;;;36.70;44.50;;;;;;4986016;28;20069;-73
2023/07/02 13:43:46;;;;;;;13.60;9.73;;;37.00;43.30;;;;;;5003044;28;20030;-73
2023/07/02 13:46:12;;;;;;;14.90;10.13;;;37.00;44.00;;;;;;5002623;28;20048;-73
2023/07/02 13:48:39;;;;;;;13.18;9.68;;;38.20;43.00;;;;;;5002909;28;20041;-75
2023/07/02 13:51:05;;;;;;;13.35;9.75;;;38.00;43.40;;;;;;5002480;28;20026;-72
2023/07/02 13:53:32;;;;;;;12.93;9.70;;;37.10;43.00;;;;;;5002735;28;20026;-75
2023/07/02 13:55:57;;;;;;;11.57;9.18;;;37.80;43.10;;;;;;5002286;28;20371;-74
2023/07/02 13:58:23;;;;;;;14.45;9.68;;;38.00;43.00;;;;;;5002731;28;20026;-75
2023/07/02 14:00:49;;;;;;;14.80;9.45;;;38.00;42.80;;;;;;5002933;28;20208;-75
2023/07/02 14:03:14;;;;;;;13.40;10.10;;;38.70;42.40;;;;;;4984832;28;20236;-74
2023/07/02 14:05:40;;;;;;;12.85;9.40;;;38.40;42.90;;;;;;5002659;28;20097;-74
2023/07/02 14:08:06;;;;;;;13.63;9.48;;;38.70;42.90;;;;;;5002485;28;20367;-73
2023/07/02 14:10:32;;;;;;;13.85;9.95;;;38.80;41.50;;;;;;5003355;28;20363;-73
2023/07/02 14:12:58;;;;;;;14.85;9.57;;;38.20;41.60;;;;;;5003025;28;20026;-71
2023/07/02 14:15:25;;;;;;;12.25;9.60;;;37.60;42.90;;;;;;4988297;28;20026;-73
2023/07/02 14:17:51;;;;;;;13.50;9.38;;;38.00;42.20;;;;;;5007440;28;20034;-71
2023/07/02 14:20:17;;;;;;;14.10;9.43;;;38.20;42.70;;;;;;5006962;28;20080;-72
2023/07/02 14:22:43;;;;;;;12.20;9.43;;;39.00;42.50;;;;;;5006582;28;20220;-72
2023/07/02 14:25:09;;;;;;;14.50;10.20;;;39.10;43.20;;;;;;5006711;28;20050;-72
2023/07/02 14:27:34;;;;;;;14.00;9.80;;;38.10;44.80;;;;;;5007037;28;20022;-71
2023/07/02 14:30:02;;;;;;;12.07;9.63;;;37.50;45.10;;;;;;5006480;28;20033;-70
2023/07/02 14:32:28;;;;;;;;;;;37.00;44.70;;;;;;5007424;28;20038;-74
2023/07/02 14:34:53;;;;;;;13.15;9.70;;;38.10;44.10;;;;;;5006846;28;20092;-69
2023/07/02 14:37:19;;;;;;;12.52;9.43;;;38.40;42.80;;;;;;5006933;28;20033;-74
2023/07/02 14:39:45;;;;;;;14.15;9.43;;;38.00;42.80;;;;;;5006463;28;20029;-73
2023/07/02 14:42:10;;;;;;;13.27;8.80;;;38.10;42.00;;;;;;5005933;28;20031;-74
2023/07/02 14:44:36;;;;;;;14.07;9.88;;;37.90;42.80;;;;;;5006769;28;20030;-74
2023/07/02 14:47:02;;;;;;;13.48;9.57;;;36.90;42.80;;;;;;5006398;28;20038;-72
2023/07/02 14:49:28;;;;;;;13.68;10.05;;;36.80;44.10;;;;;;5006554;28;20034;-71
2023/07/02 14:51:53;;;;;;;12.07;9.20;;;38.00;42.50;;;;;;5006496;28;20030;-72
2023/07/02 14:54:19;;;;;;;13.50;10.30;;;39.70;42.30;;;;;;5006716;28;20030;-74
2023/07/02 14:56:45;;;;;;;14.82;9.68;;;39.60;40.80;;;;;;5006634;28;20058;-71
2023/07/02 14:59:10;;;;;;;12.32;9.07;;;39.00;41.60;;;;;;5006135;28;20030;-74
2023/07/02 15:01:36;;;;;;;13.45;9.68;;;38.30;41.80;;;;;;5006374;28;20327;-70
2023/07/02 15:04:02;;;;;;;17.23;10.52;;;39.30;42.20;;;;;;5006051;28;20220;-70
2023/07/02 15:06:27;;;;;;;11.75;9.20;;;39.20;40.90;;;;;;4989212;28;20030;-71
2023/07/02 15:08:53;;;;;;;13.40;9.50;;;38.50;41.60;;;;;;5006230;28;20034;-73
2023/07/02 15:11:19;;;;;;;13.02;9.60;;;37.70;42.00;;;;;;5005811;28;20029;-73
2023/07/02 15:13:45;;;;;;;13.50;9.25;;;37.50;42.10;;;;;;5006650;28;20324;-73
2023/07/02 15:16:12;;;;;;;13.13;9.80;;;38.30;42.50;;;;;;5005912;28;20037;-73
2023/07/02 15:18:38;;;;;;;13.98;10.18;;;39.20;41.80;;;;;;4988849;28;20030;-72
2023/07/02 15:21:05;;;;;;;14.43;9.55;;;40.10;41.70;;;;;;5005339;28;20177;-72
2023/07/02 15:23:32;;;;;;;12.67;9.77;;;39.80;41.30;;;;;;5006056;28;20102;-71
2023/07/02 15:26:03;;;;;;;14.30;9.98;;;40.20;41.60;;;;;;5005224;28;20422;-72
2023/07/02 15:28:30;;;;;;;12.77;9.82;;;39.60;40.90;;;;;;5006194;28;20030;-71
2023/07/02 15:31:09;;;;;;;13.38;10.07;;;39.20;41.20;;;;;;5005663;28;20033;-71
2023/07/02 15:33:35;;;;;;;13.60;10.32;;;38.70;41.20;;;;;;5006297;28;20052;-71
2023/07/02 15:36:02;;;;;;;13.85;10.73;;;39.10;41.10;;;;;;5005325;28;20256;-73
2023/07/02 15:38:28;;;;;;;13.07;9.77;;;38.10;41.80;;;;;;5006167;28;20045;-73
2023/07/02 15:41:07;;;;;;;13.38;9.95;;;38.70;41.80;;;;;;5005879;28;20027;-72
2023/07/02 15:43:33;;;;;;;12.30;10.10;;;38.60;41.80;;;;;;5006091;28;20097;-74
2023/07/02 15:45:59;;;;;;;14.20;9.63;;;39.80;41.10;;;;;;5005337;28;20029;-71
2023/07/02 15:48:24;;;;;;;13.40;9.85;;;40.20;41.00;;;;;;5005705;28;20034;-72
2023/07/02 15:50:50;;;;;;;12.85;9.70;;;39.90;40.90;;;;;;5005753;28;20038;-73
2023/07/02 15:53:18;;;;;;;12.82;10.50;;;39.20;41.20;;;;;;5004942;28;20271;-71
2023/07/02 15:55:44;;;;;;;13.27;9.77;;;39.20;41.20;;;;;;5005650;28;20041;-72
2023/07/02 15:58:10;;;;;;;14.57;11.00;;;38.80;41.20;;;;;;4987688;28;20117;-71
2023/07/02 16:00:35;;;;;;;14.00;10.27;;;36.90;42.70;;;;;;5005476;28;20197;-71
2023/07/02 16:03:01;;;;;;;12.13;9.70;;;36.90;43.10;;;;;;5004448;28;20042;-73
2023/07/02 16:05:27;;;;;;;14.50;10.07;;;36.90;43.90;;;;;;5005450;28;20034;-73
2023/07/02 16:07:53;;;;;;;14.13;9.68;;;38.30;42.40;;;;;;5005115;28;20097;-71
2023/07/02 16:10:18;;;;;;;13.93;9.52;;;39.60;41.70;;;;;;5004931;28;20042;-72
2023/07/02 16:12:45;;;;;;;12.43;9.85;;;39.20;41.00;;;;;;5005465;28;20030;-70
2023/07/02 16:15:11;;;;;;;11.63;9.60;;;38.90;41.30;;;;;;4987683;28;20040;-72
2023/07/02 16:17:38;;;;;;;13.18;9.63;;;38.60;41.20;;;;;;5005032;28;20323;-71
2023/07/02 16:20:04;;;;;;;12.98;9.85;;;39.40;41.20;;;;;;5004836;28;20018;-73
2023/07/02 16:22:30;;;;;;;12.18;9.48;;;39.10;41.20;;;;;;5004903;28;20030;-73
2023/07/02 16:24:55;;;;;;;13.05;9.95;;;38.60;41.20;;;;;;5005205;28;20045;-75
2023/07/02 16:27:21;;;;;;;13.60;10.18;;;37.50;41.90;;;;;;4987154;28;20038;-72
2023/07/02 16:29:47;;;;;;;14.63;10.23;;;36.80;42.50;;;;;;5005337;28;20074;-72
2023/07/02 16:32:13;;;;;;;12.32;8.95;;;37.20;42.30;;;;;;5004510;28;20030;-74
2023/07/02 16:34:39;;;;;;;13.95;9.63;;;37.50;42.60;;;;;;5004839;28;20030;-72
2023/07/02 16:37:05;;;;;;;11.48;8.70;;;39.30;41.40;;;;;;5003626;28;20026;-72
2023/07/02 16:39:31;;;;;;;14.25;9.75;;;38.90;41.90;;;;;;5004708;28;20034;-73
2023/07/02 16:41:57;;;;;;;13.23;9.70;;;38.70;40.80;;;;;;4987644;28;20034;-71
2023/07/02 16:44:25;;;;;;;13.38;9.35;;;37.30;41.90;;;;;;5004470;28;20032;-73
2023/07/02 16:46:53;;;;;;;18.63;10.05;;;35.90;43.00;;;;;;5004513;28;20034;-72
2023/07/02 16:49:22;;;;;;;14.32;9.50;;;36.80;42.50;;;;;;5003916;28;20041;-75
2023/07/02 16:51:48;;;;;;;14.82;10.30;;;37.10;42.40;;;;;;5004336;28;20308;-76
2023/07/02 16:54:15;;;;;;;13.23;9.43;;;36.80;43.10;;;;;;5004225;28;20061;-74
2023/07/02 16:57:00;;;;;;;12.18;9.60;;;36.50;43.30;;;;;;5004433;28;20216;-73
2023/07/02 16:59:29;;;;;;;14.70;10.25;;;35.80;43.70;;;;;;5004420;28;20034;-70
2023/07/02 17:01:57;;;;;;;15.75;9.88;;;35.10;43.50;;;;;;5004054;28;20052;-73
2023/07/02 17:04:24;;;;;;;14.65;10.15;;;34.60;44.50;;;;;;5003881;28;20042;-72
2023/07/02 17:06:54;;;;;;;14.85;10.27;;;34.40;44.80;;;;;;5004540;28;20324;-74
2023/07/02 17:09:33;;;;;;;15.57;9.77;;;35.00;44.80;;;;;;5003856;28;20037;-72
2023/07/02 17:12:02;;;;;;;12.95;9.70;;;34.40;44.00;;;;;;5004021;28;20335;-70
2023/07/02 17:14:30;;;;;;;14.13;10.18;;;33.60;45.10;;;;;;5004152;28;20089;-71
2023/07/02 17:16:59;;;;;;;13.82;9.70;;;33.40;44.80;;;;;;5003964;28;20035;-71
2023/07/02 17:19:34;;;;;;;17.70;9.80;;;32.70;45.70;;;;;;5003299;28;20060;-71
2023/07/02 17:22:01;;;;;;;14.43;9.63;;;33.70;44.70;;;;;;5004227;28;20085;-72
2023/07/02 17:24:29;;;;;;;16.23;10.05;;;33.10;44.90;;;;;;5002689;28;20105;-73
2023/07/02 17:26:57;;;;;;;13.73;9.73;;;33.60;45.10;;;;;;4986428;28;20347;-71
2023/07/02 17:29:23;;;;;;;13.98;9.68;;;34.10;44.40;;;;;;4998856;28;20495;-72
2023/07/02 17:31:52;;;;;;;14.20;9.80;;;33.90;45.10;;;;;;5003141;28;20037;-75
2023/07/02 17:34:20;;;;;;;16.13;9.48;;;33.40;44.60;;;;;;5003246;28;20041;-70
2023/07/02 17:36:49;;;;;;;15.25;9.98;;;32.50;46.10;;;;;;5003869;28;20018;-74